createdAt,value
2023-07-19T00:00:49.844Z,5.55
2023-07-19T00:03:16.885Z,5.45
2023-07-19T00:05:43.880Z,4.35
2023-07-19T00:08:11.075Z,4.75
2023-07-19T00:10:38.068Z,4.68
2023-07-19T00:13:05.408Z,5.40
2023-07-19T00:15:32.533Z,4.47
2023-07-19T00:17:59.511Z,4.95
2023-07-19T00:20:26.513Z,5.15
2023-07-19T00:22:53.485Z,5.70
2023-07-19T00:25:20.652Z,4.95
2023-07-19T00:27:49.947Z,5.78
2023-07-19T00:30:17.283Z,5.68
2023-07-19T00:32:44.300Z,6.15
2023-07-19T00:35:11.495Z,4.90
2023-07-19T00:37:38.543Z,4.95
2023-07-19T00:40:06.658Z,6.45
2023-07-19T00:42:33.877Z,5.70
2023-07-19T00:45:00.945Z,6.53
2023-07-19T00:47:28.622Z,4.82
2023-07-19T00:49:55.837Z,6.38
2023-07-19T00:52:23.383Z,6.60
2023-07-19T00:54:50.524Z,6.78
2023-07-19T00:57:17.520Z,5.25
2023-07-19T00:59:44.644Z,5.50
2023-07-19T01:02:13.501Z,6.72
2023-07-19T01:04:42.267Z,8.13
2023-07-19T01:07:09.361Z,6.25
2023-07-19T01:09:36.446Z,6.85
2023-07-19T01:12:03.814Z,6.32
2023-07-19T01:14:30.844Z,5.63
2023-07-19T01:16:58.328Z,6.75
2023-07-19T01:19:25.483Z,6.13
2023-07-19T01:21:54.052Z,5.35
2023-07-19T01:24:21.410Z,6.38
2023-07-19T01:26:48.646Z,5.63
2023-07-19T01:29:15.683Z,6.35
2023-07-19T01:31:42.760Z,6.07
2023-07-19T01:34:10.105Z,6.10
2023-07-19T01:36:37.615Z,7.20
2023-07-19T01:39:04.611Z,7.03
2023-07-19T01:41:31.644Z,7.65
2023-07-19T01:43:58.614Z,5.85
2023-07-19T01:46:25.624Z,5.85
2023-07-19T01:48:52.611Z,5.93
2023-07-19T01:51:19.888Z,7.45
2023-07-19T01:53:47.134Z,6.20
2023-07-19T01:56:14.534Z,9.15
2023-07-19T01:58:41.814Z,6.90
2023-07-19T02:01:09.037Z,7.05
2023-07-19T02:03:36.131Z,7.97
2023-07-19T02:06:03.262Z,6.53
2023-07-19T02:08:30.240Z,6.72
2023-07-19T02:10:57.213Z,6.75
2023-07-19T02:13:24.382Z,8.05
2023-07-19T02:15:51.399Z,6.78
2023-07-19T02:18:18.670Z,7.20
2023-07-19T02:20:46.784Z,7.28
2023-07-19T02:23:14.899Z,7.38
2023-07-19T02:25:43.143Z,6.95
2023-07-19T02:28:11.902Z,7.63
2023-07-19T02:30:45.513Z,9.32
2023-07-19T02:33:13.512Z,7.35
2023-07-19T02:35:40.581Z,7.55
2023-07-19T02:38:07.652Z,8.32
2023-07-19T02:40:34.899Z,8.13
2023-07-19T02:43:01.905Z,7.03
2023-07-19T02:45:29.296Z,7.22
2023-07-19T02:47:57.951Z,6.95
2023-07-19T02:50:25.078Z,7.07
2023-07-19T02:52:52.297Z,6.97
2023-07-19T02:55:19.378Z,7.38
2023-07-19T02:57:46.362Z,7.43
2023-07-19T03:00:13.721Z,8.32
2023-07-19T03:02:41.068Z,8.07
2023-07-19T03:05:08.447Z,7.28
2023-07-19T03:07:35.497Z,7.32
2023-07-19T03:10:02.495Z,6.93
2023-07-19T03:12:29.519Z,8.48
2023-07-19T03:14:56.536Z,7.13
2023-07-19T03:17:23.696Z,7.80
2023-07-19T03:19:50.679Z,8.18
2023-07-19T03:22:17.764Z,7.20
2023-07-19T03:24:46.254Z,6.32
2023-07-19T03:27:13.286Z,7.13
2023-07-19T03:29:40.445Z,7.50
2023-07-19T03:32:08.779Z,7.65
2023-07-19T03:34:36.074Z,6.75
2023-07-19T03:37:03.319Z,8.15
2023-07-19T03:39:30.428Z,7.72
2023-07-19T03:41:58.827Z,6.80
2023-07-19T03:44:26.321Z,6.85
2023-07-19T03:46:53.354Z,7.45
2023-07-19T03:49:21.151Z,6.72
2023-07-19T03:51:49.224Z,7.18
2023-07-19T03:54:18.940Z,6.65
2023-07-19T03:56:46.107Z,6.25
2023-07-19T03:59:13.766Z,7.28
2023-07-19T04:01:41.229Z,8.73
2023-07-19T04:04:08.254Z,8.13
2023-07-19T04:06:35.436Z,7.43
2023-07-19T04:09:02.788Z,8.30
2023-07-19T04:11:30.186Z,7.28
2023-07-19T04:13:57.273Z,7.25
2023-07-19T04:16:24.701Z,6.18
2023-07-19T04:18:51.925Z,7.07
2023-07-19T04:21:19.153Z,7.25
2023-07-19T04:23:48.457Z,7.60
2023-07-19T04:26:16.134Z,8.27
2023-07-19T04:28:43.192Z,7.82
2023-07-19T04:31:10.175Z,8.32
2023-07-19T04:33:37.902Z,8.23
2023-07-19T04:36:15.018Z,8.48
2023-07-19T04:38:43.738Z,8.23
2023-07-19T04:41:11.068Z,7.82
2023-07-19T04:43:38.418Z,7.93
2023-07-19T04:46:07.446Z,8.90
2023-07-19T04:48:35.936Z,8.20
2023-07-19T04:51:03.481Z,7.07
2023-07-19T04:53:30.478Z,6.95
2023-07-19T04:55:58.831Z,6.68
2023-07-19T04:58:30.011Z,7.15
2023-07-19T05:00:57.001Z,9.20
2023-07-19T05:03:24.184Z,9.82
2023-07-19T05:05:51.172Z,7.75
2023-07-19T05:08:19.031Z,5.78
2023-07-19T05:10:46.105Z,7.55
2023-07-19T05:13:13.294Z,6.90
2023-07-19T05:15:40.490Z,7.88
2023-07-19T05:18:12.253Z,9.35
2023-07-19T05:20:40.713Z,7.70
2023-07-19T05:23:07.745Z,8.05
2023-07-19T05:25:34.883Z,7.63
2023-07-19T05:28:01.991Z,8.45
2023-07-19T05:30:29.004Z,6.85
2023-07-19T05:32:56.303Z,7.65
2023-07-19T05:35:23.449Z,6.57
2023-07-19T05:37:50.855Z,7.28
2023-07-19T05:40:18.534Z,6.65
2023-07-19T05:42:46.303Z,7.18
2023-07-19T05:45:13.340Z,7.60
2023-07-19T05:47:40.527Z,7.20
2023-07-19T05:50:08.455Z,7.35
2023-07-19T05:52:35.603Z,7.70
2023-07-19T05:55:05.488Z,8.20
2023-07-19T05:57:33.664Z,8.02
2023-07-19T06:00:14.537Z,7.68
2023-07-19T06:02:54.189Z,7.30
2023-07-19T06:05:24.407Z,7.90
2023-07-19T06:07:54.666Z,7.75
2023-07-19T06:10:22.058Z,7.25
2023-07-19T06:12:49.563Z,7.30
2023-07-19T06:15:16.762Z,8.27
2023-07-19T06:17:44.081Z,8.63
2023-07-19T06:20:14.948Z,7.78
2023-07-19T06:22:42.429Z,9.07
2023-07-19T06:25:09.732Z,8.68
2023-07-19T06:27:36.998Z,7.97
2023-07-19T06:30:04.393Z,7.28
2023-07-19T06:32:31.651Z,8.48
2023-07-19T06:34:58.832Z,7.68
2023-07-19T06:37:25.908Z,8.63
2023-07-19T06:39:53.043Z,6.97
2023-07-19T06:42:20.145Z,6.97
2023-07-19T06:44:47.138Z,7.32
2023-07-19T06:47:14.505Z,7.20
2023-07-19T06:49:41.963Z,7.07
2023-07-19T06:52:09.230Z,8.93
2023-07-19T06:54:36.340Z,9.45
2023-07-19T06:57:03.332Z,11.05
2023-07-19T06:59:30.471Z,9.77
2023-07-19T07:01:57.442Z,7.95
2023-07-19T07:04:25.462Z,6.75
2023-07-19T07:06:52.456Z,7.90
2023-07-19T07:09:19.480Z,7.55
2023-07-19T07:11:46.470Z,7.57
2023-07-19T07:14:13.473Z,7.35
2023-07-19T07:16:40.607Z,7.45
2023-07-19T07:19:07.611Z,10.05
2023-07-19T07:21:34.579Z,8.15
2023-07-19T07:24:01.599Z,8.43
2023-07-19T07:26:28.625Z,7.32
2023-07-19T07:28:55.683Z,6.72
2023-07-19T07:31:23.395Z,7.40
2023-07-19T07:33:50.762Z,7.78
2023-07-19T07:36:17.756Z,6.45
2023-07-19T07:38:44.749Z,7.60
2023-07-19T07:41:13.376Z,8.40
2023-07-19T07:43:41.593Z,7.53
2023-07-19T07:46:08.671Z,8.45
2023-07-19T07:48:35.777Z,8.70
2023-07-19T07:51:02.871Z,6.47
2023-07-19T07:53:29.899Z,9.25
2023-07-19T07:55:56.940Z,6.30
2023-07-19T07:58:23.956Z,9.23
2023-07-19T08:00:50.935Z,6.95
2023-07-19T08:03:18.169Z,7.60
2023-07-19T08:05:45.219Z,7.38
2023-07-19T08:08:12.584Z,5.90
2023-07-19T08:10:40.429Z,7.45
2023-07-19T08:13:08.876Z,5.68
2023-07-19T08:15:36.196Z,5.60
2023-07-19T08:18:03.487Z,6.15
2023-07-19T08:20:30.906Z,5.95
2023-07-19T08:22:59.098Z,6.32
2023-07-19T08:25:28.369Z,6.53
2023-07-19T08:27:55.664Z,6.13
2023-07-19T08:30:23.056Z,5.22
2023-07-19T08:32:50.187Z,6.15
2023-07-19T08:35:17.615Z,6.97
2023-07-19T08:37:45.499Z,6.20
2023-07-19T08:40:14.319Z,5.63
2023-07-19T08:42:41.869Z,6.65
2023-07-19T08:45:09.700Z,6.93
2023-07-19T08:47:37.256Z,5.68
2023-07-19T08:50:06.150Z,6.60
2023-07-19T08:52:33.453Z,8.27
2023-07-19T08:55:01.097Z,7.88
2023-07-19T08:57:28.596Z,6.70
2023-07-19T08:59:55.749Z,7.95
2023-07-19T09:02:22.790Z,8.20
2023-07-19T09:05:09.555Z,7.65
2023-07-19T09:07:38.039Z,7.68
2023-07-19T09:10:08.418Z,7.25
2023-07-19T09:12:42.276Z,8.55
2023-07-19T09:15:10.251Z,7.55
2023-07-19T09:17:47.102Z,7.60
2023-07-19T09:20:14.654Z,6.75
2023-07-19T09:22:42.541Z,6.35
2023-07-19T09:25:11.108Z,8.95
2023-07-19T09:27:38.479Z,7.10
2023-07-19T09:30:12.667Z,7.55
2023-07-19T09:32:40.135Z,6.88
2023-07-19T09:35:07.977Z,7.43
2023-07-19T09:37:35.324Z,5.57
2023-07-19T09:40:04.812Z,6.38
2023-07-19T09:42:34.257Z,5.85
2023-07-19T09:45:01.924Z,6.93
2023-07-19T09:47:30.413Z,6.22
2023-07-19T09:49:57.663Z,8.07
2023-07-19T09:52:26.520Z,5.70
2023-07-19T09:54:54.524Z,6.78
2023-07-19T09:57:24.738Z,6.32
2023-07-19T09:59:52.139Z,6.57
2023-07-19T10:02:19.472Z,8.18
2023-07-19T10:04:47.088Z,7.53
2023-07-19T10:07:21.336Z,6.18
2023-07-19T10:09:50.801Z,7.00
2023-07-19T10:12:17.913Z,4.90
2023-07-19T10:15:00.880Z,4.63
2023-07-19T10:17:28.214Z,4.35
2023-07-19T10:20:08.151Z,5.32
2023-07-19T10:22:55.884Z,5.95
2023-07-19T10:25:28.476Z,4.97
2023-07-19T10:27:57.628Z,5.75
2023-07-19T10:30:51.109Z,5.18
2023-07-19T10:33:31.601Z,5.60
2023-07-19T10:36:19.568Z,7.40
2023-07-19T10:38:47.053Z,6.30
2023-07-19T10:41:17.015Z,5.72
2023-07-19T10:43:50.070Z,5.82
2023-07-19T10:46:20.205Z,7.70
2023-07-19T10:48:47.592Z,5.30
2023-07-19T10:51:14.742Z,5.03
2023-07-19T10:53:46.656Z,4.97
2023-07-19T10:56:16.733Z,6.15
2023-07-19T10:58:44.200Z,4.90
2023-07-19T11:01:11.873Z,5.30
2023-07-19T11:03:40.068Z,6.20
2023-07-19T11:06:08.403Z,5.15
2023-07-19T11:08:35.443Z,4.70
2023-07-19T11:11:02.467Z,4.43
2023-07-19T11:13:29.575Z,4.00
2023-07-19T11:15:57.258Z,4.90
2023-07-19T11:18:28.631Z,4.90
2023-07-19T11:20:59.293Z,4.70
2023-07-19T11:23:29.667Z,5.90
2023-07-19T11:26:10.319Z,4.83
2023-07-19T11:28:45.116Z,4.78
2023-07-19T11:31:42.339Z,5.95
2023-07-19T11:34:10.684Z,5.30
2023-07-19T11:36:41.770Z,5.75
2023-07-19T11:41:46.553Z,6.20
2023-07-19T11:44:17.992Z,5.15
2023-07-19T11:46:45.453Z,5.53
2023-07-19T11:49:12.610Z,5.45
2023-07-19T11:51:40.036Z,5.43
2023-07-19T11:54:07.085Z,4.63
2023-07-19T11:56:34.779Z,4.47
2023-07-19T11:59:02.137Z,4.38
2023-07-19T12:01:29.248Z,4.85
2023-07-19T12:04:01.629Z,5.15
2023-07-19T12:06:29.689Z,4.43
2023-07-19T12:08:56.652Z,6.40
2023-07-19T12:11:23.845Z,4.80
2023-07-19T12:13:50.885Z,5.18
2023-07-19T12:16:18.228Z,5.85
2023-07-19T12:18:45.453Z,6.68
2023-07-19T12:21:12.521Z,5.80
2023-07-19T12:23:41.613Z,6.22
2023-07-19T12:26:10.431Z,5.55
2023-07-19T12:28:38.055Z,5.65
2023-07-19T12:31:05.080Z,5.30
2023-07-19T12:33:32.064Z,4.65
2023-07-19T12:35:59.206Z,5.22
2023-07-19T12:38:26.202Z,5.70
2023-07-19T12:40:53.160Z,5.00
2023-07-19T12:43:20.588Z,4.47
2023-07-19T12:45:47.655Z,5.72
2023-07-19T12:48:14.654Z,5.25
2023-07-19T12:50:41.682Z,4.30
2023-07-19T12:53:08.655Z,5.47
2023-07-19T12:55:35.673Z,5.97
2023-07-19T12:58:02.614Z,5.00
2023-07-19T13:00:29.737Z,4.95
2023-07-19T13:02:56.926Z,4.97
2023-07-19T13:05:24.146Z,5.30
2023-07-19T13:07:52.055Z,5.60
2023-07-19T13:10:19.130Z,5.28
2023-07-19T13:12:46.104Z,5.05
2023-07-19T13:15:13.166Z,4.88
2023-07-19T13:17:41.535Z,6.03
2023-07-19T13:20:12.185Z,4.45
2023-07-19T13:22:40.992Z,4.28
2023-07-19T13:25:08.270Z,4.60
2023-07-19T13:27:36.188Z,4.63
2023-07-19T13:30:05.142Z,5.07
2023-07-19T13:32:33.755Z,4.93
2023-07-19T13:35:01.132Z,3.83
2023-07-19T13:38:06.640Z,5.20
2023-07-19T13:40:15.286Z,5.55
2023-07-19T13:42:42.404Z,4.60
2023-07-19T13:45:09.971Z,4.55
2023-07-19T13:47:37.030Z,5.07
2023-07-19T13:50:04.653Z,4.50
2023-07-19T13:52:31.579Z,5.15
2023-07-19T13:54:58.572Z,4.30
2023-07-19T13:57:25.604Z,4.30
2023-07-19T13:59:52.774Z,4.53
2023-07-19T14:02:27.094Z,4.35
2023-07-19T14:04:54.733Z,4.03
2023-07-19T14:07:23.376Z,3.88
2023-07-19T14:09:52.186Z,3.50
2023-07-19T14:12:19.957Z,4.70
2023-07-19T14:14:47.001Z,4.55
2023-07-19T14:17:14.153Z,4.00
2023-07-19T14:19:41.363Z,2.85
2023-07-19T14:22:08.376Z,3.55
2023-07-19T14:24:36.119Z,4.00
2023-07-19T14:27:04.865Z,3.78
2023-07-19T14:29:31.860Z,3.83
2023-07-19T14:31:58.886Z,3.83
2023-07-19T14:34:26.703Z,3.75
2023-07-19T14:36:54.089Z,3.05
2023-07-19T14:39:21.974Z,2.47
2023-07-19T14:41:57.028Z,4.00
2023-07-19T14:44:26.180Z,3.25
2023-07-19T14:46:53.193Z,4.30
2023-07-19T14:49:20.372Z,3.10
2023-07-19T14:51:47.518Z,3.60
2023-07-19T14:54:14.567Z,4.85
2023-07-19T14:56:41.757Z,2.65
2023-07-19T14:59:08.856Z,3.60
2023-07-19T15:01:36.406Z,3.00
2023-07-19T15:04:03.526Z,3.72
2023-07-19T15:06:30.871Z,2.67
2023-07-19T15:09:01.510Z,2.80
2023-07-19T15:11:28.839Z,3.70
2023-07-19T15:13:55.950Z,3.70
2023-07-19T15:16:23.320Z,4.00
2023-07-19T15:18:50.799Z,5.40
2023-07-19T15:21:17.998Z,3.90
2023-07-19T15:26:32.485Z,4.20
2023-07-19T15:29:01.585Z,3.55
2023-07-19T15:31:29.408Z,4.07
2023-07-19T15:33:56.584Z,4.03
2023-07-19T15:36:24.379Z,3.28
2023-07-19T15:38:55.725Z,3.70
2023-07-19T15:41:24.099Z,4.00
2023-07-19T15:43:51.600Z,4.25
2023-07-19T15:46:18.810Z,3.63
2023-07-19T15:48:46.585Z,5.05
2023-07-19T15:51:14.566Z,4.13
2023-07-19T15:53:41.788Z,3.80
2023-07-19T15:56:09.194Z,4.00
2023-07-19T15:58:36.290Z,4.38
2023-07-19T16:01:03.639Z,3.97
2023-07-19T16:03:31.233Z,4.05
2023-07-19T16:05:58.183Z,3.72
2023-07-19T16:08:25.156Z,3.53
2023-07-19T16:10:52.344Z,4.10
2023-07-19T16:13:21.624Z,3.78
2023-07-19T16:15:48.970Z,3.03
2023-07-19T16:18:16.153Z,2.63
2023-07-19T16:20:43.788Z,3.60
2023-07-19T16:23:11.197Z,3.53
2023-07-19T16:25:38.390Z,3.35
2023-07-19T16:28:05.558Z,3.80
2023-07-19T16:30:32.846Z,3.22
2023-07-19T16:33:00.405Z,3.17
2023-07-19T16:35:28.814Z,3.65
2023-07-19T16:37:55.939Z,3.75
2023-07-19T16:40:23.072Z,4.43
2023-07-19T16:42:50.049Z,4.22
2023-07-19T16:45:17.393Z,5.05
2023-07-19T16:47:44.626Z,4.45
2023-07-19T16:50:13.219Z,3.45
2023-07-19T16:52:43.791Z,3.83
2023-07-19T16:55:11.447Z,3.58
2023-07-19T16:57:39.130Z,3.97
2023-07-19T17:00:17.412Z,3.95
2023-07-19T17:02:45.518Z,4.60
2023-07-19T17:05:12.709Z,3.95
2023-07-19T17:07:40.387Z,3.58
2023-07-19T17:10:07.836Z,3.78
2023-07-19T17:12:34.881Z,3.55
2023-07-19T17:15:01.852Z,3.70
2023-07-19T17:17:28.969Z,3.90
2023-07-19T17:19:56.169Z,4.63
2023-07-19T17:22:23.390Z,5.03
2023-07-19T17:24:50.496Z,3.90
2023-07-19T17:27:17.571Z,4.22
2023-07-19T17:29:44.601Z,4.20
2023-07-19T17:32:11.662Z,3.42
2023-07-19T17:34:39.287Z,3.53
2023-07-19T17:37:06.737Z,4.20
2023-07-19T17:39:33.776Z,4.10
2023-07-19T17:42:00.778Z,4.10
2023-07-19T17:44:27.997Z,5.32
2023-07-19T17:46:55.093Z,4.47
2023-07-19T17:49:22.257Z,4.70
2023-07-19T17:51:49.379Z,4.50
2023-07-19T17:54:16.368Z,3.60
2023-07-19T17:56:43.393Z,4.88
2023-07-19T17:59:10.480Z,4.40
2023-07-19T18:01:37.795Z,4.65
2023-07-19T18:04:05.121Z,4.30
2023-07-19T18:06:32.300Z,2.80
2023-07-19T18:08:59.326Z,3.80
2023-07-19T18:11:26.388Z,3.90
2023-07-19T18:13:53.371Z,3.58
2023-07-19T18:16:20.724Z,4.40
2023-07-19T18:18:47.830Z,5.32
2023-07-19T18:21:14.953Z,3.88
2023-07-19T18:23:42.052Z,3.90
2023-07-19T18:26:09.045Z,4.13
2023-07-19T18:28:36.401Z,4.20
2023-07-19T18:31:04.409Z,4.43
2023-07-19T18:33:31.660Z,4.30
2023-07-19T18:35:58.961Z,4.55
2023-07-19T18:38:25.943Z,3.67
2023-07-19T18:40:53.131Z,4.38
2023-07-19T18:43:20.119Z,3.88
2023-07-19T18:45:47.149Z,3.08
2023-07-19T18:48:14.222Z,3.67
2023-07-19T18:50:41.741Z,4.00
2023-07-19T18:53:08.846Z,3.65
2023-07-19T18:55:36.095Z,3.22
2023-07-19T18:58:03.118Z,3.25
2023-07-19T19:00:30.703Z,3.60
2023-07-19T19:02:58.054Z,3.72
2023-07-19T19:05:25.393Z,3.60
2023-07-19T19:07:52.541Z,3.75
2023-07-19T19:10:21.204Z,3.55
2023-07-19T19:12:48.815Z,3.17
2023-07-19T19:15:16.252Z,3.63
2023-07-19T19:17:43.523Z,3.00
2023-07-19T19:20:11.247Z,3.67
2023-07-19T19:22:39.610Z,3.22
2023-07-19T19:25:07.700Z,3.10
2023-07-19T19:27:35.739Z,4.32
2023-07-19T19:30:02.978Z,2.85
2023-07-19T19:32:30.082Z,3.00
2023-07-19T19:34:57.661Z,3.05
2023-07-19T19:37:24.862Z,3.45
2023-07-19T19:39:52.450Z,3.20
2023-07-19T19:42:19.453Z,3.90
2023-07-19T19:44:46.525Z,4.10
2023-07-19T19:47:14.402Z,3.45
2023-07-19T19:49:41.656Z,3.60
2023-07-19T19:52:09.029Z,5.25
2023-07-19T19:54:37.382Z,4.15
2023-07-19T19:59:34.889Z,4.63
2023-07-19T20:04:32.279Z,4.05
2023-07-19T20:06:59.425Z,4.32
2023-07-19T20:11:57.467Z,4.07
2023-07-19T20:14:26.368Z,3.67
2023-07-19T20:16:54.008Z,4.47
2023-07-19T20:21:51.212Z,2.67
2023-07-19T20:24:18.935Z,4.88
2023-07-19T20:26:48.926Z,4.25
2023-07-19T20:36:47.987Z,5.45
2023-07-19T20:41:45.099Z,4.70
2023-07-19T20:44:12.551Z,4.40
2023-07-19T20:46:40.011Z,3.80
2023-07-19T20:49:14.244Z,4.75
2023-07-19T20:51:43.238Z,4.65
2023-07-19T20:54:11.317Z,4.78
2023-07-19T20:56:38.778Z,4.00
2023-07-19T20:59:05.894Z,4.72
2023-07-19T21:01:33.174Z,4.93
2023-07-19T21:04:00.662Z,5.88
2023-07-19T21:06:28.002Z,5.57
2023-07-19T21:08:55.473Z,5.70
2023-07-19T21:11:23.126Z,5.00
2023-07-19T21:13:50.532Z,4.63
2023-07-19T21:16:17.662Z,5.53
2023-07-19T21:18:44.775Z,5.07
2023-07-19T21:21:12.031Z,5.65
2023-07-19T21:23:39.108Z,5.20
2023-07-19T21:26:06.224Z,5.53
2023-07-19T21:28:33.332Z,5.25
2023-07-19T21:31:00.404Z,6.55
2023-07-19T21:33:27.591Z,4.75
2023-07-19T21:35:54.784Z,6.72
2023-07-19T21:38:23.215Z,5.68
2023-07-19T21:40:50.252Z,5.88
2023-07-19T21:43:17.240Z,7.03
2023-07-19T21:45:44.314Z,6.75
2023-07-19T21:48:11.511Z,5.47
2023-07-19T21:50:47.967Z,4.88
2023-07-19T21:53:16.712Z,6.63
2023-07-19T21:55:44.015Z,5.07
2023-07-19T21:58:11.148Z,4.40
2023-07-19T22:00:56.588Z,4.53
2023-07-19T22:03:23.722Z,4.78
2023-07-19T22:05:51.602Z,5.10
2023-07-19T22:08:18.849Z,4.57
2023-07-19T22:10:45.992Z,4.55
2023-07-19T22:13:13.013Z,5.47
2023-07-19T22:15:40.019Z,4.53
2023-07-19T22:18:18.388Z,5.25
2023-07-19T22:20:48.941Z,4.13
2023-07-19T22:23:17.090Z,5.65
2023-07-19T22:25:44.623Z,5.50
2023-07-19T22:28:12.378Z,4.35
2023-07-19T22:30:39.519Z,4.65
2023-07-19T22:33:06.959Z,4.10
2023-07-19T22:35:34.351Z,4.57
2023-07-19T22:38:01.991Z,3.85
2023-07-19T22:40:29.169Z,4.18
2023-07-19T22:42:56.279Z,4.18
2023-07-19T22:45:23.218Z,4.30
2023-07-19T22:47:50.501Z,4.28
2023-07-19T22:50:18.000Z,4.40
2023-07-19T22:52:49.218Z,4.15
2023-07-19T22:55:17.884Z,4.85
2023-07-19T22:57:45.449Z,4.90
2023-07-19T23:00:12.774Z,3.85
2023-07-19T23:02:40.079Z,3.92
2023-07-19T23:05:07.453Z,4.75
2023-07-19T23:07:34.563Z,4.80
2023-07-19T23:10:01.611Z,4.40
2023-07-19T23:12:28.654Z,4.90
2023-07-19T23:14:55.680Z,5.22
2023-07-19T23:17:22.857Z,4.38
2023-07-19T23:19:49.897Z,4.88
2023-07-19T23:22:19.621Z,4.38
2023-07-19T23:24:46.994Z,5.13
2023-07-19T23:27:14.117Z,3.95
2023-07-19T23:29:41.126Z,4.50
2023-07-19T23:32:08.505Z,4.70
2023-07-19T23:34:35.531Z,4.28
2023-07-19T23:37:02.799Z,4.25
2023-07-19T23:39:29.834Z,4.65
2023-07-19T23:41:56.875Z,4.80
2023-07-19T23:44:25.080Z,5.03
2023-07-19T23:46:52.272Z,4.40
2023-07-19T23:49:19.413Z,4.88
2023-07-19T23:51:46.529Z,5.15
2023-07-19T23:54:13.885Z,5.18
2023-07-19T23:56:40.911Z,4.13
2023-07-19T23:59:07.919Z,4.60
